Time;durP1;ratioP1;P1;durP2;ratioP2;P2;SDS_P1;SDS_P2;PMS_P1;PMS_P2;Temp;Humidity;BMP_temperature;BMP_pressure;BME280_temperature;BME280_humidity;BME280_pressure;Samples;Min_cycle;Max_cycle;Signal;HPM_P1;HPM_P2
2021/10/31 00:01:10;;;;;;;4.40;3.25;;;;;;;11.98;82.41;98225.69;5045649;28;20112;-69
2021/10/31 00:03:35;;;;;;;5.68;3.70;;;;;;;11.96;83.04;98214.25;5051707;28;20025;-70
2021/10/31 00:06:01;;;;;;;6.68;3.53;;;;;;;11.85;83.89;98229.34;5041301;28;20021;-69
2021/10/31 00:08:26;;;;;;;7.28;3.88;;;;;;;11.74;84.30;98220.09;5037334;28;20053;-70
2021/10/31 00:10:52;;;;;;;7.32;3.60;;;;;;;11.77;84.02;98235.06;5053836;28;20033;-70
2021/10/31 00:13:17;;;;;;;5.35;3.47;;;;;;;11.85;83.70;98232.06;5048285;28;20111;-70
2021/10/31 00:15:43;;;;;;;6.32;3.78;;;;;;;11.88;83.75;98242.47;5041081;28;20029;-69
2021/10/31 00:18:08;;;;;;;6.18;3.60;;;;;;;11.90;83.29;98247.69;5047332;28;20033;-70
2021/10/31 00:20:33;;;;;;;4.75;3.00;;;;;;;12.06;82.63;98236.22;5057284;28;20033;-69
2021/10/31 00:22:59;;;;;;;6.07;3.20;;;;;;;12.14;81.84;98240.53;5062558;28;20399;-69
2021/10/31 00:25:24;;;;;;;6.03;2.95;;;;;;;12.10;81.76;98244.72;5073644;28;20025;-70
2021/10/31 00:27:49;;;;;;;5.20;3.30;;;;;;;12.07;82.52;98244.13;5066563;28;20021;-69
2021/10/31 00:30:15;;;;;;;4.45;3.10;;;;;;;11.90;82.93;98232.25;5058748;28;20020;-69
2021/10/31 00:32:41;;;;;;;6.30;3.40;;;;;;;12.06;83.57;98247.91;5069378;28;20021;-69
2021/10/31 00:35:07;;;;;;;6.68;3.42;;;;;;;11.83;84.71;98250.41;5055606;28;20033;-69
2021/10/31 00:37:33;;;;;;;8.32;3.83;;;;;;;11.69;85.88;98248.91;5033875;28;20039;-70
2021/10/31 00:39:58;;;;;;;6.40;3.40;;;;;;;11.75;85.92;98251.53;5046648;28;20103;-70
2021/10/31 00:42:23;;;;;;;5.18;3.35;;;;;;;11.73;86.24;98241.97;5048364;28;20530;-70
2021/10/31 00:44:48;;;;;;;5.80;3.70;;;;;;;11.73;86.80;98247.41;5040908;28;20550;-69
2021/10/31 00:47:14;;;;;;;6.47;3.30;;;;;;;11.72;86.47;98241.16;5044630;28;20017;-70
2021/10/31 00:49:39;;;;;;;4.13;2.85;;;;;;;11.85;86.00;98245.63;5049960;28;20501;-70
2021/10/31 00:52:06;;;;;;;4.55;2.83;;;;;;;11.84;85.94;98239.38;5049447;28;20095;-70
2021/10/31 00:54:34;;;;;;;5.47;3.13;;;;;;;11.86;86.02;98244.56;5046332;28;20033;-70
2021/10/31 00:56:59;;;;;;;6.57;3.20;;;;;;;11.87;86.70;98265.22;5053139;28;20025;-70
2021/10/31 00:59:24;;;;;;;6.20;3.17;;;;;;;11.86;86.42;98258.13;5039744;28;20025;-70
2021/10/31 01:01:51;;;;;;;3.97;2.88;;;;;;;11.91;86.58;98250.16;5043542;28;20029;-70
2021/10/31 01:04:20;;;;;;;6.05;2.78;;;;;;;11.84;86.59;98238.50;5043943;28;20026;-69
2021/10/31 01:06:57;;;;;;;4.10;2.65;;;;;;;11.88;86.46;98244.38;5050562;28;20025;-70
2021/10/31 01:09:42;;;;;;;4.88;2.50;;;;;;;11.83;86.24;98242.28;5052564;28;20028;-69
2021/10/31 01:12:35;;;;;;;3.80;2.10;;;;;;;11.81;86.39;98239.78;5041890;28;20107;-70
2021/10/31 01:15:06;;;;;;;5.68;2.30;;;;;;;11.72;86.95;98257.41;5050209;28;20042;-69
2021/10/31 01:18:05;;;;;;;2.42;1.73;;;;;;;11.79;86.71;98252.75;5052315;28;20090;-69
2021/10/31 01:20:59;;;;;;;4.05;2.30;;;;;;;11.77;86.69;98252.16;5051665;28;20037;-70
2021/10/31 01:24:02;;;;;;;2.90;1.95;;;;;;;11.70;87.30;98251.38;5035594;28;20064;-69
2021/10/31 01:26:56;;;;;;;3.67;1.92;;;;;;;11.70;87.72;98247.84;5036705;28;20048;-69
2021/10/31 01:29:42;;;;;;;3.42;2.00;;;;;;;11.60;88.30;98261.91;5034493;28;20021;-69
2021/10/31 01:32:36;;;;;;;3.58;2.20;;;;;;;11.31;89.97;98271.53;5048274;28;20139;-69
2021/10/31 01:35:39;;;;;;;4.18;2.17;;;;;;;11.09;91.60;98269.22;5046585;28;20036;-70
2021/10/31 01:38:28;;;;;;;5.32;2.40;;;;;;;11.22;91.74;98262.88;5051193;28;20108;-69
2021/10/31 01:41:03;;;;;;;4.20;2.08;;;;;;;11.29;91.31;98268.22;5032169;28;20037;-69
2021/10/31 01:43:58;;;;;;;3.92;2.00;;;;;;;11.16;92.36;98278.13;5045084;28;20059;-69
2021/10/31 01:46:37;;;;;;;3.70;1.80;;;;;;;10.99;93.05;98262.63;5044413;28;20024;-69
2021/10/31 01:49:05;;;;;;;4.03;2.15;;;;;;;10.77;94.19;98260.28;5052061;28;20174;-70
2021/10/31 01:51:38;;;;;;;3.63;2.20;;;;;;;10.78;95.59;98258.41;5051315;28;20155;-70
2021/10/31 01:54:15;;;;;;;3.40;1.90;;;;;;;10.94;94.42;98249.75;5046587;28;20021;-70
2021/10/31 01:56:44;;;;;;;3.47;2.40;;;;;;;11.03;94.47;98258.44;5033159;28;20021;-69
2021/10/31 01:59:24;;;;;;;3.88;2.17;;;;;;;11.03;94.12;98253.88;5042397;28;20020;-69
2021/10/31 02:01:50;;;;;;;4.18;2.30;;;;;;;10.88;94.46;98256.88;5051297;28;20064;-70
2021/10/31 02:04:19;;;;;;;4.10;2.30;;;;;;;10.77;95.80;98254.03;5047720;28;20043;-69
2021/10/31 02:06:48;;;;;;;3.85;2.30;;;;;;;10.73;96.41;98265.28;5055198;28;20115;-70
2021/10/31 02:09:16;;;;;;;3.25;2.00;;;;;;;10.71;97.32;98253.84;5054392;28;20430;-69
2021/10/31 02:11:44;;;;;;;3.63;2.20;;;;;;;10.72;96.95;98252.81;5045544;28;20064;-69
2021/10/31 02:14:10;;;;;;;6.53;2.13;;;;;;;10.77;97.15;98240.50;5047706;28;20435;-69
2021/10/31 02:16:37;;;;;;;4.30;2.20;;;;;;;10.80;97.06;98262.56;5044685;28;20067;-69
2021/10/31 02:19:13;;;;;;;5.65;2.42;;;;;;;10.78;97.14;98255.72;5054990;28;20033;-69
2021/10/31 02:21:40;;;;;;;2.25;1.80;;;;;;;10.79;97.41;98262.75;5040043;28;20024;-69
2021/10/31 02:24:07;;;;;;;3.33;2.03;;;;;;;10.75;97.76;98256.97;5036861;28;20037;-69
2021/10/31 02:26:36;;;;;;;5.28;2.05;;;;;;;10.81;97.63;98249.84;5036373;28;20055;-69
2021/10/31 02:29:07;;;;;;;4.40;2.08;;;;;;;10.88;96.87;98258.75;5046936;28;20029;-69
2021/10/31 02:31:33;;;;;;;4.95;2.08;;;;;;;10.87;97.24;98257.94;5056464;28;20067;-71
2021/10/31 02:33:58;;;;;;;3.80;2.05;;;;;;;10.73;97.36;98259.88;5055228;28;20100;-69
2021/10/31 02:36:24;;;;;;;5.38;2.55;;;;;;;10.66;97.08;98250.16;5037425;28;20026;-69
2021/10/31 02:38:49;;;;;;;7.10;2.10;;;;;;;10.83;96.67;98237.75;5035556;28;20047;-70
2021/10/31 02:41:14;;;;;;;4.00;2.10;;;;;;;11.00;96.16;98239.94;5046003;28;20037;-71
2021/10/31 02:43:40;;;;;;;3.53;2.00;;;;;;;11.04;95.82;98230.34;5052223;28;20033;-69
2021/10/31 02:46:05;;;;;;;2.95;1.88;;;;;;;11.12;94.92;98216.50;5035248;28;20071;-67
2021/10/31 02:48:31;;;;;;;3.25;1.85;;;;;;;11.01;95.39;98233.47;5054836;28;20032;-67
2021/10/31 02:51:45;;;;;;;3.17;1.70;;;;;;;10.92;95.05;98238.31;5037952;28;20022;-68
2021/10/31 02:54:29;;;;;;;3.50;2.08;;;;;;;10.67;96.10;98241.81;5025762;28;20044;-68
2021/10/31 02:57:02;;;;;;;4.82;2.30;;;;;;;10.57;96.94;98238.75;5053391;28;20033;-68
2021/10/31 02:59:45;;;;;;;5.68;2.28;;;;;;;10.46;97.14;98252.97;5052513;28;20025;-68
2021/10/31 03:02:11;;;;;;;6.13;2.20;;;;;;;10.34;96.70;98246.59;5043231;28;20082;-68
2021/10/31 03:04:38;;;;;;;3.70;2.10;;;;;;;10.18;97.24;98228.94;5036932;28;20641;-67
2021/10/31 03:07:04;;;;;;;3.15;1.92;;;;;;;10.26;97.88;98259.25;5034859;28;20112;-68
2021/10/31 03:09:29;;;;;;;3.63;2.35;;;;;;;10.25;98.25;98251.38;5034833;28;20530;-68
2021/10/31 03:12:03;;;;;;;4.20;2.25;;;;;;;10.23;98.89;98248.88;5052248;28;20108;-68
2021/10/31 03:14:29;;;;;;;3.80;2.15;;;;;;;10.32;98.60;98241.38;5048176;28;20074;-68
2021/10/31 03:16:55;;;;;;;5.63;2.10;;;;;;;10.37;98.37;98236.16;5052724;28;20112;-68
2021/10/31 03:19:20;;;;;;;5.75;2.25;;;;;;;10.40;98.70;98221.38;5053165;28;20021;-67
2021/10/31 03:21:46;;;;;;;2.75;1.90;;;;;;;10.55;97.79;98235.44;5038938;28;20032;-68
2021/10/31 03:24:11;;;;;;;4.10;2.08;;;;;;;10.83;96.31;98236.94;5051828;28;20029;-68
2021/10/31 03:26:36;;;;;;;3.28;2.00;;;;;;;10.80;96.04;98231.97;5034684;28;20026;-67
2021/10/31 03:29:02;;;;;;;3.25;1.73;;;;;;;10.90;95.86;98226.91;5050933;28;20029;-68
2021/10/31 03:31:27;;;;;;;2.72;1.83;;;;;;;11.02;95.53;98235.13;5051896;28;20471;-68
2021/10/31 03:33:52;;;;;;;4.25;1.98;;;;;;;10.99;95.98;98230.16;5034184;28;20068;-68
2021/10/31 03:36:18;;;;;;;3.97;2.30;;;;;;;11.07;95.03;98233.41;5034271;28;20486;-68
2021/10/31 03:38:43;;;;;;;3.88;2.28;;;;;;;11.02;94.85;98233.25;5046783;28;20099;-68
2021/10/31 03:41:08;;;;;;;4.97;2.65;;;;;;;10.90;95.20;98224.19;5054180;28;20029;-68
2021/10/31 03:43:34;;;;;;;2.92;2.10;;;;;;;10.85;95.45;98222.16;5053528;28;20114;-68
2021/10/31 03:45:59;;;;;;;2.97;2.10;;;;;;;10.87;95.13;98227.31;5053419;28;20020;-68
2021/10/31 03:48:24;;;;;;;5.45;2.40;;;;;;;10.68;95.82;98219.13;5053840;28;20075;-68
2021/10/31 03:50:49;;;;;;;4.35;2.13;;;;;;;10.49;96.72;98230.91;5053245;28;20344;-69
2021/10/31 03:53:15;;;;;;;2.83;1.90;;;;;;;10.42;98.17;98219.28;5043044;28;20503;-69
2021/10/31 03:55:40;;;;;;;7.03;2.58;;;;;;;10.33;98.61;98226.84;5046854;28;20067;-69
2021/10/31 03:58:06;;;;;;;5.93;2.15;;;;;;;10.09;97.79;98225.66;5053413;28;20044;-69
2021/10/31 04:00:31;;;;;;;3.53;2.45;;;;;;;9.90;99.71;98215.75;5046221;28;20056;-69
2021/10/31 04:02:56;;;;;;;4.70;2.58;;;;;;;9.79;100.00;98218.06;5039823;28;20100;-69
2021/10/31 04:05:21;;;;;;;5.38;2.85;;;;;;;9.75;100.00;98214.16;5052826;28;20583;-69
2021/10/31 04:07:47;;;;;;;11.45;2.70;;;;;;;9.75;100.00;98208.75;5048598;28;20029;-69
2021/10/31 04:10:13;;;;;;;3.50;2.40;;;;;;;9.82;100.00;98216.81;5053569;28;20025;-69
2021/10/31 04:12:38;;;;;;;5.13;2.35;;;;;;;9.86;100.00;98216.19;5053345;28;20478;-68
2021/10/31 04:15:05;;;;;;;4.72;2.10;;;;;;;9.88;100.00;98214.09;5052275;28;20033;-70
2021/10/31 04:17:31;;;;;;;4.40;2.40;;;;;;;9.85;100.00;98211.84;5046211;28;20021;-69
2021/10/31 04:19:57;;;;;;;3.58;2.33;;;;;;;10.10;100.00;98200.28;5046884;28;20036;-69
2021/10/31 04:22:22;;;;;;;3.83;2.58;;;;;;;10.28;100.00;98197.72;5052331;28;20482;-70
2021/10/31 04:24:47;;;;;;;2.85;2.00;;;;;;;10.19;100.00;98207.13;5051514;28;20371;-69
2021/10/31 04:27:13;;;;;;;4.07;2.47;;;;;;;10.00;100.00;98194.50;5046612;28;20382;-69
2021/10/31 04:29:39;;;;;;;3.88;2.30;;;;;;;10.02;100.00;98214.06;5043798;28;20025;-69
2021/10/31 04:32:04;;;;;;;4.38;2.20;;;;;;;10.01;100.00;98199.72;5053140;28;20028;-70
2021/10/31 04:34:30;;;;;;;7.78;2.30;;;;;;;9.87;100.00;98185.41;5051371;28;20037;-70
2021/10/31 04:36:56;;;;;;;2.63;2.00;;;;;;;9.95;100.00;98205.97;5050205;28;20502;-70
2021/10/31 04:39:21;;;;;;;3.70;2.00;;;;;;;9.90;100.00;98200.38;5033832;28;20025;-69
2021/10/31 04:41:47;;;;;;;3.55;2.33;;;;;;;9.93;100.00;98201.81;5051251;28;20133;-69
2021/10/31 04:44:14;;;;;;;5.18;2.70;;;;;;;9.86;100.00;98194.56;5034509;28;20033;-70
2021/10/31 04:46:40;;;;;;;4.95;2.67;;;;;;;9.93;100.00;98188.31;5038988;28;20012;-69
2021/10/31 04:49:05;;;;;;;7.88;3.47;;;;;;;9.82;100.00;98187.94;5053615;28;20501;-69
2021/10/31 04:51:31;;;;;;;6.07;3.63;;;;;;;9.73;100.00;98197.31;5051219;28;20033;-69
2021/10/31 04:53:56;;;;;;;5.35;2.80;;;;;;;9.60;100.00;98194.66;5040781;28;20124;-69
2021/10/31 04:56:23;;;;;;;8.25;3.65;;;;;;;9.55;100.00;98191.75;5032968;28;20036;-69
2021/10/31 04:58:52;;;;;;;5.03;2.92;;;;;;;9.48;100.00;98199.03;5047896;28;20111;-69
2021/10/31 05:01:17;;;;;;;4.07;3.10;;;;;;;9.34;100.00;98199.06;5051840;28;20021;-70
2021/10/31 05:03:43;;;;;;;5.25;3.15;;;;;;;9.26;100.00;98193.91;5052228;28;20043;-70
2021/10/31 05:06:09;;;;;;;5.35;2.90;;;;;;;9.20;100.00;98192.88;5049614;28;20056;-69
2021/10/31 05:08:34;;;;;;;7.45;2.83;;;;;;;9.20;100.00;98181.25;5037521;28;20029;-69
2021/10/31 05:10:59;;;;;;;5.07;3.00;;;;;;;9.25;100.00;98194.94;5047960;28;20025;-69
2021/10/31 05:13:25;;;;;;;4.97;3.13;;;;;;;9.32;100.00;98194.91;5050054;28;20083;-69
2021/10/31 05:15:50;;;;;;;4.13;2.60;;;;;;;9.34;100.00;98192.84;5040406;28;20040;-70
2021/10/31 05:18:15;;;;;;;5.00;3.00;;;;;;;9.26;100.00;98172.31;5034201;28;20398;-69
2021/10/31 05:20:40;;;;;;;5.93;2.83;;;;;;;9.29;100.00;98193.47;5033441;28;20064;-69
2021/10/31 05:23:06;;;;;;;7.47;2.92;;;;;;;9.15;100.00;98172.94;5050049;28;20514;-69
2021/10/31 05:25:31;;;;;;;7.60;3.13;;;;;;;9.16;100.00;98177.28;5052046;28;20037;-69
2021/10/31 05:27:57;;;;;;;5.78;3.25;;;;;;;9.13;100.00;98188.50;5045732;28;20029;-69
2021/10/31 05:30:22;;;;;;;4.53;3.13;;;;;;;9.19;100.00;98176.88;5033643;28;20044;-69
2021/10/31 05:32:49;;;;;;;4.65;3.05;;;;;;;9.10;100.00;98183.53;5042330;28;20033;-69
2021/10/31 05:35:14;;;;;;;6.82;3.22;;;;;;;9.09;100.00;98179.16;5032968;28;20029;-69
2021/10/31 05:37:42;;;;;;;4.60;3.28;;;;;;;9.02;100.00;98178.38;5033581;28;20021;-69
2021/10/31 05:40:10;;;;;;;6.05;2.90;;;;;;;8.94;100.00;98172.13;5035222;28;20495;-69
2021/10/31 05:42:36;;;;;;;4.35;2.83;;;;;;;8.88;100.00;98172.97;5039325;28;20483;-69
2021/10/31 05:45:02;;;;;;;5.75;3.00;;;;;;;8.92;100.00;98163.41;5054938;28;20038;-69
2021/10/31 05:47:28;;;;;;;5.55;2.90;;;;;;;8.89;100.00;98171.09;5054272;28;20398;-70
2021/10/31 05:49:54;;;;;;;5.00;3.28;;;;;;;8.83;100.00;98167.38;5058117;28;20482;-69
2021/10/31 05:52:19;;;;;;;5.45;3.15;;;;;;;8.78;100.00;98157.19;5040458;28;20455;-69
2021/10/31 05:54:45;;;;;;;6.50;3.38;;;;;;;9.09;100.00;98162.97;5052158;28;20033;-69
2021/10/31 05:57:11;;;;;;;6.65;3.72;;;;;;;9.03;100.00;98139.53;5050415;28;20039;-71
2021/10/31 05:59:36;;;;;;;5.13;3.22;;;;;;;9.11;100.00;98152.81;5051190;28;20541;-73
2021/10/31 06:02:03;;;;;;;5.63;3.38;;;;;;;8.95;100.00;98133.31;5055891;28;20029;-72
2021/10/31 06:04:29;;;;;;;4.57;3.03;;;;;;;9.05;100.00;98153.66;5054825;28;20541;-72
2021/10/31 06:06:55;;;;;;;5.53;3.30;;;;;;;9.05;100.00;98142.88;5046514;28;20394;-72
2021/10/31 06:09:20;;;;;;;4.55;2.90;;;;;;;9.16;100.00;98144.91;5067171;28;20028;-71
2021/10/31 06:11:45;;;;;;;5.10;3.03;;;;;;;9.34;100.00;98152.34;5075100;28;20036;-71
2021/10/31 06:14:11;;;;;;;4.38;2.80;;;;;;;9.31;100.00;98153.59;5075952;28;20020;-76
2021/10/31 06:16:38;;;;;;;3.75;2.95;;;;;;;9.32;100.00;98155.25;5072976;28;20429;-72
2021/10/31 06:19:05;;;;;;;4.82;3.30;;;;;;;9.34;100.00;98158.56;5066564;28;20474;-72
2021/10/31 06:21:30;;;;;;;5.25;3.00;;;;;;;9.49;100.00;98171.84;5074506;28;20031;-72
2021/10/31 06:23:56;;;;;;;4.90;3.05;;;;;;;9.54;100.00;98168.50;5063621;28;20029;-74
2021/10/31 06:26:21;;;;;;;7.47;2.72;;;;;;;9.71;100.00;98160.75;5057515;28;20063;-73
2021/10/31 06:28:48;;;;;;;4.40;2.90;;;;;;;9.93;100.00;98166.69;5051561;28;20025;-74
2021/10/31 06:31:14;;;;;;;4.60;2.95;;;;;;;10.20;99.13;98162.81;5051274;28;20033;-75
2021/10/31 06:33:39;;;;;;;3.90;2.20;;;;;;;10.44;97.63;98163.13;5055130;28;20112;-74
2021/10/31 06:36:04;;;;;;;8.18;2.20;;;;;;;10.63;95.12;98161.31;5046645;28;20429;-73
2021/10/31 06:38:30;;;;;;;3.20;2.28;;;;;;;10.84;95.07;98163.63;5056412;28;20052;-73
2021/10/31 06:40:55;;;;;;;3.33;2.00;;;;;;;12.27;87.98;98150.84;5055423;28;20055;-74
2021/10/31 06:43:21;;;;;;;2.85;2.00;;;;;;;14.40;75.89;98153.22;5058425;28;20488;-73
2021/10/31 06:45:46;;;;;;;2.92;1.75;;;;;;;15.50;69.13;98142.78;5046655;28;20025;-73
2021/10/31 06:48:11;;;;;;;6.72;2.00;;;;;;;15.95;67.46;98155.38;5041108;28;20112;-73
2021/10/31 06:50:37;;;;;;;10.48;2.20;;;;;;;16.11;65.84;98148.25;5047894;28;20398;-72
2021/10/31 06:53:02;;;;;;;4.70;1.92;;;;;;;16.53;64.08;98146.75;5043929;28;20063;-73
2021/10/31 06:55:28;;;;;;;4.32;2.20;;;;;;;16.52;64.20;98128.72;5048183;28;20025;-72
2021/10/31 06:57:55;;;;;;;4.00;2.15;;;;;;;16.42;62.94;98146.63;5045918;28;20104;-71
2021/10/31 07:00:20;;;;;;;5.35;2.90;;;;;;;16.44;63.51;98132.75;5050333;28;20022;-73
2021/10/31 07:02:46;;;;;;;6.63;4.45;;;;;;;17.10;61.36;98137.97;5044368;28;20025;-74
2021/10/31 07:05:11;;;;;;;4.35;3.13;;;;;;;16.81;61.01;98140.22;5047199;28;20088;-71
2021/10/31 07:07:37;;;;;;;5.18;3.20;;;;;;;16.73;62.47;98144.22;5049244;28;20029;-70
2021/10/31 07:10:03;;;;;;;4.45;2.72;;;;;;;16.44;61.88;98143.66;5049730;28;20086;-70
2021/10/31 07:12:28;;;;;;;4.13;3.55;;;;;;;16.65;62.46;98137.31;5044138;28;20028;-71
2021/10/31 07:14:53;;;;;;;4.20;2.92;;;;;;;17.41;59.41;98147.22;5044635;28;20044;-71
2021/10/31 07:17:19;;;;;;;3.65;2.80;;;;;;;17.95;58.45;98154.41;5043330;28;20056;-70
2021/10/31 07:19:44;;;;;;;4.35;2.38;;;;;;;19.03;55.73;98144.50;5041880;28;20031;-70
2021/10/31 07:22:10;;;;;;;4.75;2.38;;;;;;;19.27;53.56;98147.50;5047510;28;20032;-70
2021/10/31 07:24:36;;;;;;;4.32;2.40;;;;;;;18.94;53.29;98152.47;5049765;28;20026;-70
2021/10/31 07:27:01;;;;;;;2.72;2.40;;;;;;;18.94;54.01;98152.47;5047971;28;20063;-70
2021/10/31 07:29:27;;;;;;;3.80;2.15;;;;;;;19.72;52.69;98140.31;5046178;28;20471;-70
2021/10/31 07:31:52;;;;;;;5.47;3.03;;;;;;;19.42;52.73;98144.75;5049662;28;20112;-70
2021/10/31 07:34:18;;;;;;;2.88;2.20;;;;;;;18.90;54.12;98145.06;5038458;28;20112;-74
2021/10/31 07:36:44;;;;;;;3.83;2.83;;;;;;;18.02;55.90;98130.31;5044351;28;20025;-73
2021/10/31 07:39:10;;;;;;;4.78;2.85;;;;;;;18.30;55.97;98133.69;5054323;28;20026;-69
2021/10/31 07:41:37;;;;;;;4.40;2.55;;;;;;;18.47;54.95;98131.56;5052010;28;20027;-68
2021/10/31 07:44:03;;;;;;;3.88;2.50;;;;;;;18.58;55.56;98133.22;5058688;28;20029;-73
2021/10/31 07:46:28;;;;;;;3.72;2.50;;;;;;;18.33;56.18;98142.19;5066524;28;20013;-74
2021/10/31 07:48:54;;;;;;;5.30;2.22;;;;;;;18.10;56.42;98120.75;5064063;28;20032;-74
2021/10/31 07:51:19;;;;;;;3.22;2.10;;;;;;;17.98;56.77;98118.28;5060093;28;20029;-75
2021/10/31 07:53:46;;;;;;;3.75;2.55;;;;;;;18.26;56.47;98136.16;5052854;28;20029;-74
2021/10/31 07:56:14;;;;;;;3.10;2.05;;;;;;;19.05;55.12;98112.97;5054920;28;20021;-74
2021/10/31 07:58:43;;;;;;;5.40;1.95;;;;;;;20.17;51.37;98116.50;5071211;28;20032;-73
2021/10/31 08:01:10;;;;;;;3.58;2.28;;;;;;;19.72;52.16;98121.09;5061985;28;20029;-72
2021/10/31 08:03:36;;;;;;;5.60;2.90;;;;;;;20.80;50.78;98115.84;5061535;28;20025;-73
2021/10/31 08:06:01;;;;;;;3.78;2.80;;;;;;;20.46;51.25;98093.78;5054524;28;20032;-72
2021/10/31 08:08:27;;;;;;;4.60;2.15;;;;;;;19.88;52.81;98111.69;5046943;28;20055;-73
2021/10/31 08:10:52;;;;;;;2.95;2.20;;;;;;;20.34;50.39;98105.16;5043929;28;20025;-73
2021/10/31 08:13:23;;;;;;;3.90;2.40;;;;;;;20.06;51.10;98088.25;5043798;28;20052;-74
2021/10/31 08:15:49;;;;;;;4.22;2.38;;;;;;;20.07;50.96;98091.84;5041160;28;20030;-73
2021/10/31 08:18:15;;;;;;;4.15;2.38;;;;;;;20.31;50.98;98092.81;5044498;28;20092;-73
2021/10/31 08:20:40;;;;;;;4.38;2.47;;;;;;;20.52;50.24;98088.00;5049383;28;20059;-74
2021/10/31 08:23:05;;;;;;;3.63;2.22;;;;;;;20.74;49.64;98081.25;5052918;28;20351;-73
2021/10/31 08:25:31;;;;;;;4.32;2.65;;;;;;;20.05;52.24;98061.94;5052312;28;20036;-74
2021/10/31 08:27:57;;;;;;;3.65;2.30;;;;;;;20.27;51.83;98079.91;5047683;28;20025;-73
2021/10/31 08:30:30;;;;;;;4.55;2.80;;;;;;;19.69;53.03;98077.75;5049553;28;20026;-74
2021/10/31 08:32:56;;;;;;;5.22;2.88;;;;;;;19.17;53.29;98070.72;5052716;28;20033;-74
2021/10/31 08:35:23;;;;;;;4.07;2.58;;;;;;;18.46;55.97;98055.94;5052763;28;20075;-72
2021/10/31 08:37:48;;;;;;;4.50;2.28;;;;;;;18.42;56.34;98071.28;5051331;28;20060;-72
2021/10/31 08:40:14;;;;;;;6.43;3.40;;;;;;;18.06;58.35;98071.22;5053178;28;20029;-72
2021/10/31 08:42:40;;;;;;;4.85;3.00;;;;;;;18.23;58.32;98064.69;5050103;28;20029;-72
2021/10/31 08:45:08;;;;;;;5.55;3.30;;;;;;;17.63;58.97;98062.31;5646879;23;20036;-72
2021/10/31 08:47:34;;;;;;;5.25;2.90;;;;;;;17.44;60.38;98048.25;5053073;28;20096;-73
2021/10/31 08:50:00;;;;;;;6.35;2.65;;;;;;;18.06;60.08;98052.06;5052873;28;20061;-72
2021/10/31 08:52:26;;;;;;;5.90;2.80;;;;;;;18.73;57.96;98036.50;5047830;28;20044;-73
2021/10/31 08:54:51;;;;;;;4.13;2.70;;;;;;;19.15;56.19;98026.31;5043268;28;20029;-69
2021/10/31 08:57:17;;;;;;;7.05;2.70;;;;;;;20.05;54.31;98022.66;5054581;28;20025;-69
2021/10/31 08:59:42;;;;;;;4.13;2.72;;;;;;;21.16;51.46;98038.53;5032060;28;20415;-69
2021/10/31 09:02:07;;;;;;;7.53;5.30;;;;;;;21.66;50.35;98042.66;5035443;28;20371;-69
2021/10/31 09:04:33;;;;;;;4.07;2.72;;;;;;;21.73;50.05;98049.75;5038478;28;20021;-69
2021/10/31 09:06:59;;;;;;;3.17;2.33;;;;;;;21.89;49.51;98029.16;5031434;28;20487;-69
2021/10/31 09:09:24;;;;;;;4.15;2.10;;;;;;;21.28;50.98;98035.38;5027888;28;20025;-74
2021/10/31 09:11:50;;;;;;;4.63;1.90;;;;;;;22.04;48.86;98028.94;5041511;28;20091;-73
2021/10/31 09:14:15;;;;;;;3.22;1.88;;;;;;;23.60;45.45;98018.56;5037615;28;20518;-73
2021/10/31 09:16:42;;;;;;;3.90;1.52;;;;;;;24.05;44.28;98030.63;5033174;28;20075;-74
2021/10/31 09:19:07;;;;;;;3.08;1.63;;;;;;;24.55;42.25;98021.47;5031319;28;20025;-73
2021/10/31 09:21:32;;;;;;;1.77;1.08;;;;;;;25.32;39.89;98011.19;5038295;28;20389;-75
2021/10/31 09:23:58;;;;;;;1.23;0.70;;;;;;;26.26;38.17;97995.09;5039903;28;20029;-75
2021/10/31 09:26:23;;;;;;;2.15;1.00;;;;;;;26.62;37.56;97999.53;5045767;28;20435;-76
2021/10/31 09:28:49;;;;;;;1.00;0.68;;;;;;;27.62;35.03;97981.56;5034668;28;20036;-75
2021/10/31 09:31:14;;;;;;;1.67;0.82;;;;;;;28.21;34.38;97993.78;5040199;28;20029;-75
2021/10/31 09:33:40;;;;;;;1.42;0.90;;;;;;;27.26;35.43;97987.63;5032739;28;20025;-73
2021/10/31 09:36:06;;;;;;;1.20;0.70;;;;;;;26.66;36.43;97975.50;5031961;28;20398;-73
2021/10/31 09:38:32;;;;;;;2.22;0.88;;;;;;;26.15;37.18;97983.53;5030953;28;20028;-74
2021/10/31 09:40:58;;;;;;;1.77;1.10;;;;;;;25.36;38.10;97965.94;5031903;28;20072;-74
2021/10/31 09:43:28;;;;;;;1.65;1.10;;;;;;;26.21;37.33;97989.72;5031455;28;20021;-74
2021/10/31 09:45:55;;;;;;;2.05;1.08;;;;;;;27.01;35.51;97981.81;5032707;28;20533;-74
2021/10/31 09:48:20;;;;;;;1.58;0.90;;;;;;;25.56;38.26;97977.53;5039864;28;20033;-74
2021/10/31 09:50:48;;;;;;;1.55;0.80;;;;;;;25.20;38.98;97975.78;5041845;28;20090;-76
2021/10/31 09:53:21;;;;;;;1.73;0.90;;;;;;;26.15;37.75;97977.19;5042914;28;20025;-75
2021/10/31 09:55:48;;;;;;;1.38;1.00;;;;;;;26.74;36.05;97971.91;5044844;28;20036;-72
2021/10/31 09:58:19;;;;;;;1.77;1.15;;;;;;;25.91;37.56;97972.91;5029895;28;20075;-73
2021/10/31 10:00:54;;;;;;;4.28;1.20;;;;;;;25.17;39.38;97973.66;5027206;28;20479;-73
2021/10/31 10:03:35;;;;;;;2.00;1.30;;;;;;;25.45;38.94;97971.47;5030606;28;20037;-74
2021/10/31 10:06:13;;;;;;;2.10;1.27;;;;;;;23.76;41.74;97969.38;5034373;28;20693;-72
2021/10/31 10:08:38;;;;;;;2.63;1.40;;;;;;;22.86;43.61;97960.66;5035905;28;20040;-74
2021/10/31 10:11:17;;;;;;;1.67;1.30;;;;;;;21.58;46.47;97949.72;5036452;28;20026;-71
2021/10/31 10:13:42;;;;;;;1.95;1.30;;;;;;;20.21;49.81;97965.72;5031415;28;20032;-72
2021/10/31 10:16:29;;;;;;;1.90;1.50;;;;;;;20.31;50.65;97954.63;5040140;28;20025;-71
2021/10/31 10:18:55;;;;;;;3.42;1.60;;;;;;;20.98;49.10;97952.06;5042285;28;20033;-74
2021/10/31 10:21:25;;;;;;;2.40;1.30;;;;;;;21.53;47.90;97946.22;5035759;28;20359;-77
2021/10/31 10:23:54;;;;;;;1.40;1.10;;;;;;;23.77;43.62;97943.41;5027575;28;20033;-69
2021/10/31 10:26:35;;;;;;;2.28;1.25;;;;;;;26.20;39.15;97930.69;5025178;28;20108;-70
2021/10/31 10:29:22;;;;;;;3.03;1.20;;;;;;;27.79;35.94;97932.56;5027608;28;20443;-69
2021/10/31 10:32:20;;;;;;;3.38;1.35;;;;;;;28.78;33.56;97924.31;5026751;28;20108;-71
2021/10/31 10:34:53;;;;;;;1.10;1.00;;;;;;;29.73;31.78;97924.28;5032919;28;20048;-72
2021/10/31 10:37:23;;;;;;;2.25;1.20;;;;;;;30.65;31.40;97925.34;5032946;28;20413;-72
2021/10/31 10:40:12;;;;;;;1.77;1.30;;;;;;;30.48;31.09;97918.13;5031575;28;20021;-71
2021/10/31 10:43:00;;;;;;;1.50;1.20;;;;;;;28.61;33.34;97922.56;5022506;28;20026;-72
2021/10/31 10:45:31;;;;;;;1.13;1.00;;;;;;;30.01;31.96;97924.31;5027745;28;20037;-71
2021/10/31 10:48:03;;;;;;;2.33;1.20;;;;;;;30.21;31.58;97921.69;5030145;28;20029;-74
2021/10/31 10:50:38;;;;;;;2.15;1.20;;;;;;;30.11;31.41;97909.88;5026345;28;20029;-72
2021/10/31 10:53:12;;;;;;;1.88;1.10;;;;;;;30.07;31.28;97902.56;5026072;28;20132;-70
2021/10/31 10:55:37;;;;;;;1.77;1.10;;;;;;;29.52;32.17;97901.28;5028662;28;20033;-70
2021/10/31 10:58:15;;;;;;;2.92;1.30;;;;;;;28.54;33.52;97899.22;5024264;28;20103;-69
2021/10/31 11:00:49;;;;;;;1.88;1.50;;;;;;;28.65;34.54;97891.25;5025626;28;20036;-70
2021/10/31 11:03:18;;;;;;;3.45;1.58;;;;;;;27.28;35.79;97883.38;5029650;28;20037;-69
2021/10/31 11:06:12;;;;;;;6.65;1.73;;;;;;;26.37;37.52;97890.19;5030364;28;20117;-69
2021/10/31 11:08:37;;;;;;;1.80;1.40;;;;;;;27.49;36.32;97863.16;5030909;28;20041;-68
2021/10/31 11:11:13;;;;;;;2.22;1.30;;;;;;;28.14;35.50;97875.56;5034584;28;20076;-69
2021/10/31 11:13:54;;;;;;;4.28;1.40;;;;;;;28.13;34.91;97868.34;5035727;28;20028;-71
2021/10/31 11:16:20;;;;;;;1.73;1.25;;;;;;;26.98;36.58;97865.84;5020927;28;20076;-70
2021/10/31 11:18:45;;;;;;;1.95;1.40;;;;;;;26.15;37.91;97863.50;5032683;28;20040;-69
2021/10/31 11:21:11;;;;;;;1.85;1.50;;;;;;;25.12;39.89;97863.84;5025978;28;20547;-70
2021/10/31 11:23:38;;;;;;;1.80;1.30;;;;;;;24.82;40.52;97853.69;5031525;28;20430;-69
2021/10/31 11:26:05;;;;;;;2.33;1.30;;;;;;;24.49;41.52;97854.84;5037893;28;20032;-70
2021/10/31 11:28:31;;;;;;;7.25;1.40;;;;;;;25.02;40.44;97844.81;5033727;28;20033;-70
2021/10/31 11:30:57;;;;;;;2.03;1.50;;;;;;;25.31;38.78;97833.16;5025356;28;20033;-70
2021/10/31 11:33:23;;;;;;;2.78;2.00;;;;;;;24.94;39.75;97828.97;5018992;28;20098;-70
2021/10/31 11:35:51;;;;;;;2.50;1.50;;;;;;;26.45;36.19;97826.38;5021888;28;20443;-69
2021/10/31 11:38:22;;;;;;;2.33;1.35;;;;;;;26.62;35.29;97802.53;5028455;28;20109;-70
2021/10/31 11:40:56;;;;;;;1.67;1.30;;;;;;;26.34;35.65;97819.56;5030590;28;20495;-71